createdAt,value
2022-11-25T00:03:17.599Z,100693.38
2022-11-25T00:07:20.386Z,100678.81
2022-11-25T00:11:23.311Z,100688.59
2022-11-25T00:15:26.078Z,100688.78
2022-11-25T00:19:30.221Z,100683.53
2022-11-25T00:23:33.595Z,100674.34
2022-11-25T00:27:36.379Z,100678.25
2022-11-25T00:31:40.694Z,100670.94
2022-11-25T00:35:44.831Z,100668.38
2022-11-25T00:39:47.769Z,100672.09
2022-11-25T00:44:07.906Z,100667.47
2022-11-25T00:48:10.629Z,100662.00
2022-11-25T00:52:17.289Z,100668.41
2022-11-25T00:56:20.000Z,100668.56
2022-11-25T01:00:23.625Z,100661.66
2022-11-25T01:04:26.439Z,100668.28
2022-11-25T01:08:32.435Z,100672.56
2022-11-25T01:12:35.175Z,100662.97
2022-11-25T01:16:37.939Z,100665.44
2022-11-25T01:20:43.358Z,100663.72
2022-11-25T01:24:47.428Z,100666.81
2022-11-25T01:28:54.003Z,100672.22
2022-11-25T01:32:56.816Z,100663.44
2022-11-25T01:36:59.867Z,100671.91
2022-11-25T01:41:05.342Z,100664.41
2022-11-25T01:45:35.204Z,100657.13
2022-11-25T01:49:41.854Z,100663.13
2022-11-25T01:53:44.828Z,100664.78
2022-11-25T01:57:55.239Z,100662.69
2022-11-25T02:02:01.584Z,100659.53
2022-11-25T02:06:11.157Z,100643.75
2022-11-25T02:10:17.612Z,100654.59
2022-11-25T02:14:24.180Z,100656.44
2022-11-25T02:18:28.433Z,100660.59
2022-11-25T02:22:41.973Z,100658.47
2022-11-25T02:26:46.417Z,100657.41
2022-11-25T02:30:50.127Z,100657.41
2022-11-25T02:34:53.492Z,100652.81
2022-11-25T02:38:58.099Z,100656.16
2022-11-25T02:43:08.286Z,100650.03
2022-11-25T02:47:11.024Z,100650.88
2022-11-25T02:51:17.786Z,100644.03
2022-11-25T02:55:20.550Z,100638.38
2022-11-25T02:59:24.661Z,100643.13
2022-11-25T03:03:27.409Z,100640.41
2022-11-25T03:07:30.704Z,100642.47
2022-11-25T03:11:53.150Z,100646.97
2022-11-25T03:15:59.087Z,100645.72
2022-11-25T03:20:02.701Z,100653.84
2022-11-25T03:24:05.999Z,100651.13
2022-11-25T03:28:08.707Z,100649.25
2022-11-25T03:32:13.157Z,100644.88
2022-11-25T03:36:16.076Z,100653.00
2022-11-25T03:40:19.253Z,100648.78
2022-11-25T03:44:22.224Z,100662.31
2022-11-25T03:48:26.349Z,100656.31
2022-11-25T03:52:29.665Z,100655.09
2022-11-25T03:56:33.726Z,100659.91
2022-11-25T04:00:36.614Z,100662.78
2022-11-25T04:04:41.371Z,100662.78
2022-11-25T04:08:44.747Z,100671.28
2022-11-25T04:12:48.531Z,100664.22
2022-11-25T04:17:02.061Z,100666.72
2022-11-25T04:21:06.634Z,100676.50
2022-11-25T04:25:10.537Z,100676.63
2022-11-25T04:29:13.389Z,100678.88
2022-11-25T04:33:16.722Z,100689.06
2022-11-25T04:37:23.658Z,100689.19
2022-11-25T04:41:27.037Z,100689.78
2022-11-25T04:45:45.335Z,100701.47
2022-11-25T04:49:53.008Z,100701.47
2022-11-25T04:53:58.016Z,100707.94
2022-11-25T04:58:01.653Z,100701.69
2022-11-25T05:02:06.383Z,100705.59
2022-11-25T05:06:12.801Z,100700.16
2022-11-25T05:10:17.029Z,100704.16
2022-11-25T05:14:23.940Z,100693.69
2022-11-25T05:18:26.885Z,100692.63
2022-11-25T05:22:31.363Z,100701.38
2022-11-25T05:26:35.834Z,100701.50
2022-11-25T05:30:38.690Z,100710.84
2022-11-25T05:34:42.407Z,100716.84
2022-11-25T05:38:45.425Z,100722.50
2022-11-25T05:42:53.543Z,100718.72
2022-11-25T05:46:56.677Z,100717.47
2022-11-25T05:51:01.006Z,100723.47
2022-11-25T05:55:05.570Z,100729.50
2022-11-25T05:59:10.709Z,100740.81
2022-11-25T06:03:25.065Z,100752.47
2022-11-25T06:07:28.035Z,100756.84
2022-11-25T06:11:31.068Z,100756.47
2022-11-25T06:15:35.317Z,100765.44
2022-11-25T06:19:40.130Z,100770.88
2022-11-25T06:23:46.123Z,100770.88
2022-11-25T06:28:11.914Z,100773.56
2022-11-25T06:32:15.447Z,100786.91
2022-11-25T06:36:31.967Z,100787.13
2022-11-25T06:40:34.701Z,100807.28
2022-11-25T06:44:37.642Z,100807.75
2022-11-25T06:48:41.926Z,100807.28
2022-11-25T06:52:44.730Z,100814.25
2022-11-25T06:56:51.548Z,100816.13
2022-11-25T07:00:54.257Z,100821.53
2022-11-25T07:04:58.405Z,100834.03
2022-11-25T07:09:02.091Z,100831.34
2022-11-25T07:13:05.327Z,100840.53
2022-11-25T07:17:12.003Z,100853.03
2022-11-25T07:21:18.084Z,100866.09
2022-11-25T07:25:20.814Z,100851.97
2022-11-25T07:33:47.644Z,100854.84
2022-11-25T07:37:53.050Z,100864.63
2022-11-25T07:41:56.239Z,100878.19
2022-11-25T07:46:09.809Z,100879.25
2022-11-25T07:50:12.887Z,100881.94
2022-11-25T07:54:17.516Z,100891.28
2022-11-25T07:58:20.235Z,100888.13
2022-11-25T08:02:23.784Z,100892.72
2022-11-25T08:06:29.258Z,100899.56
2022-11-25T08:10:33.911Z,100897.44
2022-11-25T08:14:37.056Z,100905.16
2022-11-25T08:18:40.439Z,100907.41
2022-11-25T08:22:43.550Z,100919.66
2022-11-25T08:26:51.376Z,100915.69
2022-11-25T08:30:54.210Z,100927.13
2022-11-25T08:34:57.230Z,100932.72
2022-11-25T08:39:02.275Z,100937.47
2022-11-25T08:43:06.783Z,100932.88
2022-11-25T08:47:10.019Z,100935.38
2022-11-25T08:51:15.450Z,100934.78
2022-11-25T08:55:18.640Z,100940.19
2022-11-25T08:59:25.372Z,100947.13
2022-11-25T09:03:28.847Z,100944.41
2022-11-25T09:07:32.018Z,100963.97
2022-11-25T09:11:34.883Z,100954.44
2022-11-25T09:15:40.304Z,100966.09
2022-11-25T09:19:43.300Z,100977.78
2022-11-25T09:23:46.603Z,100976.28
2022-11-25T09:27:49.499Z,100988.56
2022-11-25T09:31:55.080Z,100994.16
2022-11-25T09:36:01.526Z,100996.16
2022-11-25T09:40:05.564Z,100994.69
2022-11-25T09:44:39.235Z,101015.03
2022-11-25T09:48:59.193Z,101009.41
2022-11-25T09:53:12.003Z,101019.78
2022-11-25T09:57:24.367Z,101013.28
2022-11-25T10:01:30.351Z,101028.09
2022-11-25T10:05:40.099Z,101031.63
2022-11-25T10:09:43.885Z,101042.03
2022-11-25T10:13:53.889Z,101045.38
2022-11-25T10:18:01.215Z,101051.97
2022-11-25T10:22:18.798Z,101056.16
2022-11-25T10:26:24.034Z,101057.34
2022-11-25T10:30:29.074Z,101057.72
2022-11-25T10:34:38.015Z,101052.06
2022-11-25T10:38:46.669Z,101055.16
2022-11-25T10:42:49.415Z,101057.19
2022-11-25T10:47:17.826Z,101068.88
2022-11-25T10:51:34.030Z,101071.16
2022-11-25T10:55:39.505Z,101070.44
2022-11-25T10:59:42.678Z,101082.78
2022-11-25T11:03:47.798Z,101077.69
2022-11-25T11:08:09.727Z,101093.72
2022-11-25T11:12:22.401Z,101094.91
2022-11-25T11:16:30.840Z,101105.69
2022-11-25T11:20:35.126Z,101105.03
2022-11-25T11:24:39.139Z,101108.72
2022-11-25T11:28:43.565Z,101117.47
2022-11-25T11:32:55.911Z,101118.31
2022-11-25T11:37:18.518Z,101121.03
2022-11-25T11:41:31.465Z,101126.84
2022-11-25T11:45:54.055Z,101118.22
2022-11-25T11:50:09.854Z,101112.09
2022-11-25T11:54:19.676Z,101121.44
2022-11-25T11:58:33.940Z,101132.22
2022-11-25T12:02:50.930Z,101139.72
2022-11-25T12:07:03.450Z,101137.59
2022-11-25T12:11:12.761Z,101140.06
2022-11-25T12:15:20.596Z,101148.38
2022-11-25T12:19:30.999Z,101148.13
2022-11-25T12:23:46.436Z,101157.50
2022-11-25T12:27:54.831Z,101168.53
2022-11-25T12:32:03.832Z,101170.09
2022-11-25T12:36:14.470Z,101167.72
2022-11-25T12:40:26.011Z,101193.41
2022-11-25T12:44:34.715Z,101181.13
2022-11-25T12:48:44.749Z,101190.50
2022-11-25T12:53:02.785Z,101199.16
2022-11-25T12:57:27.848Z,101199.31
2022-11-25T13:02:15.800Z,101213.88
2022-11-25T13:06:33.738Z,101212.72
2022-11-25T13:11:04.752Z,101216.25
2022-11-25T13:15:24.012Z,101221.47
2022-11-25T13:19:27.187Z,101224.31
2022-11-25T13:23:48.643Z,101236.03
2022-11-25T13:28:01.422Z,101244.22
2022-11-25T13:32:25.111Z,101242.91
2022-11-25T13:36:45.728Z,101242.06
2022-11-25T13:40:58.056Z,101245.63
2022-11-25T13:45:02.822Z,101259.25
2022-11-25T13:49:07.290Z,101264.69
2022-11-25T13:53:22.863Z,101271.19
2022-11-25T13:57:28.761Z,101273.09
2022-11-25T14:01:33.726Z,101272.50
2022-11-25T14:06:01.067Z,101272.75
2022-11-25T14:10:37.951Z,101284.56
2022-11-25T14:14:55.998Z,101286.44
2022-11-25T14:19:54.895Z,101289.63
2022-11-25T14:24:07.554Z,101292.13
2022-11-25T14:28:23.181Z,101303.69
2022-11-25T14:32:31.595Z,101306.19
2022-11-25T14:36:41.956Z,101311.03
2022-11-25T14:40:54.844Z,101316.72
2022-11-25T14:44:58.409Z,101328.66
2022-11-25T14:49:07.651Z,101331.16
2022-11-25T14:53:16.382Z,101340.59
2022-11-25T14:57:27.087Z,101341.41
2022-11-25T15:01:31.947Z,101345.44
2022-11-25T15:05:36.418Z,101350.28
2022-11-25T15:09:45.418Z,101353.94
2022-11-25T15:13:52.967Z,101365.25
2022-11-25T15:17:55.863Z,101366.41
2022-11-25T15:26:29.016Z,101383.94
2022-11-25T15:30:34.124Z,101392.56
2022-11-25T15:34:45.147Z,101399.31
2022-11-25T15:38:48.839Z,101411.94
2022-11-25T15:42:53.096Z,101410.50
2022-11-25T15:47:00.659Z,101423.03
2022-11-25T15:51:05.923Z,101428.72
2022-11-25T15:55:21.026Z,101429.38
2022-11-25T15:59:46.801Z,101430.47
2022-11-25T16:03:51.186Z,101443.47
2022-11-25T16:08:25.419Z,101448.38
2022-11-25T16:12:28.447Z,101444.47
2022-11-25T16:16:33.230Z,101452.25
2022-11-25T16:20:36.688Z,101467.53
2022-11-25T16:24:43.225Z,101475.31
2022-11-25T16:28:53.103Z,101478.75
2022-11-25T16:32:57.420Z,101487.97
2022-11-25T16:37:00.137Z,101499.69
2022-11-25T16:41:10.349Z,101496.38
2022-11-25T16:45:20.394Z,101506.63
2022-11-25T16:49:25.691Z,101512.28
2022-11-25T16:53:28.836Z,101526.03
2022-11-25T16:57:31.874Z,101540.44
2022-11-25T17:01:35.293Z,101537.13
2022-11-25T17:05:39.544Z,101555.31
2022-11-25T17:09:44.089Z,101562.41
2022-11-25T17:13:50.377Z,101563.28
2022-11-25T17:17:53.499Z,101570.19
2022-11-25T17:21:59.946Z,101571.03
2022-11-25T17:26:02.839Z,101576.03
2022-11-25T17:30:08.162Z,101581.91
2022-11-25T17:34:15.422Z,101586.28
2022-11-25T17:38:21.262Z,101594.03
2022-11-25T17:42:28.158Z,101609.28
2022-11-25T17:46:30.899Z,101625.78
2022-11-25T17:50:36.049Z,101623.06
2022-11-25T17:54:40.694Z,101627.44
2022-11-25T17:58:43.852Z,101638.91
2022-11-25T18:02:46.839Z,101649.34
2022-11-25T18:06:50.023Z,101659.75
2022-11-25T18:10:54.149Z,101658.50
2022-11-25T18:14:57.321Z,101666.44
2022-11-25T18:19:00.185Z,101673.50
2022-11-25T18:23:03.536Z,101682.03
2022-11-25T18:27:11.799Z,101684.13
2022-11-25T18:31:14.637Z,101693.69
2022-11-25T18:35:20.074Z,101693.50
2022-11-25T18:39:23.337Z,101702.84
2022-11-25T18:43:28.534Z,101703.47
2022-11-25T18:47:31.366Z,101706.78
2022-11-25T18:51:34.284Z,101721.75
2022-11-25T18:55:37.198Z,101728.00
2022-11-25T18:59:43.946Z,101742.78
2022-11-25T19:03:47.760Z,101744.88
2022-11-25T19:07:53.428Z,101743.59
2022-11-25T19:11:57.506Z,101748.56
2022-11-25T19:16:06.848Z,101753.72
2022-11-25T19:20:16.053Z,101769.31
2022-11-25T19:24:18.815Z,101781.56
2022-11-25T19:28:23.353Z,101781.97
2022-11-25T19:32:30.467Z,101783.59
2022-11-25T19:36:34.904Z,101793.59
2022-11-25T19:40:40.275Z,101796.91
2022-11-25T19:44:43.427Z,101800.84
2022-11-25T19:48:47.564Z,101805.81
2022-11-25T19:52:50.779Z,101815.16
2022-11-25T19:56:53.488Z,101825.53
2022-11-25T20:00:59.132Z,101832.00
2022-11-25T20:05:04.950Z,101842.75
2022-11-25T20:09:11.064Z,101839.63
2022-11-25T20:13:16.183Z,101848.94
2022-11-25T20:17:26.107Z,101845.59
2022-11-25T20:21:34.637Z,101852.22
2022-11-25T20:25:41.597Z,101854.94
2022-11-25T20:29:44.329Z,101862.06
2022-11-25T20:33:48.295Z,101870.16
2022-11-25T20:37:54.108Z,101868.88
2022-11-25T20:41:56.882Z,101882.59
2022-11-25T20:46:02.267Z,101886.06
2022-11-25T20:50:05.970Z,101903.53
2022-11-25T20:54:14.184Z,101905.50
2022-11-25T20:58:23.402Z,101902.81
2022-11-25T21:02:26.210Z,101919.16
2022-11-25T21:06:31.110Z,101924.75
2022-11-25T21:10:35.206Z,101921.22
2022-11-25T21:14:38.226Z,101931.66
2022-11-25T21:18:42.817Z,101930.81
2022-11-25T21:22:49.659Z,101937.72
2022-11-25T21:26:55.222Z,101942.66
2022-11-25T21:30:57.971Z,101951.81
2022-11-25T21:35:03.836Z,101964.22
2022-11-25T21:39:08.995Z,101965.63
2022-11-25T21:43:21.706Z,101971.53
2022-11-25T21:47:26.276Z,101972.47
2022-11-25T21:51:29.042Z,101981.47
2022-11-25T21:55:33.568Z,101984.13
2022-11-25T21:59:37.696Z,101993.81
2022-11-25T22:03:40.568Z,101994.53
2022-11-25T22:07:43.716Z,101997.13
2022-11-25T22:11:50.215Z,101996.75
2022-11-25T22:15:57.825Z,101999.75
2022-11-25T22:20:00.739Z,102018.13
2022-11-25T22:24:06.690Z,102018.78
2022-11-25T22:28:14.121Z,102018.59
2022-11-25T22:32:19.193Z,102032.94
2022-11-25T22:36:32.407Z,102031.66
2022-11-25T22:40:36.003Z,102045.81
2022-11-25T22:44:42.751Z,102052.91
2022-11-25T22:48:47.741Z,102057.66
2022-11-25T22:52:51.140Z,102063.25
2022-11-25T22:56:53.858Z,102061.53
2022-11-25T23:00:57.620Z,102066.94
2022-11-25T23:05:02.404Z,102074.22
2022-11-25T23:09:05.208Z,102070.22
2022-11-25T23:13:08.341Z,102082.91
2022-11-25T23:17:18.601Z,102075.97
2022-11-25T23:21:25.429Z,102073.00
2022-11-25T23:25:28.428Z,102070.66
2022-11-25T23:29:31.162Z,102088.09
2022-11-25T23:33:38.116Z,102084.88
2022-11-25T23:37:42.668Z,102087.59
2022-11-25T23:41:46.553Z,102093.00
2022-11-25T23:45:52.266Z,102097.56
2022-11-25T23:49:58.510Z,102095.50
2022-11-25T23:54:02.875Z,102090.97
2022-11-25T23:58:13.164Z,102097.22
